createdAt,value
2019-03-23T00:02:22.920Z,58.12
2019-03-23T00:05:15.075Z,58.23
2019-03-23T00:08:06.163Z,58.33
2019-03-23T00:10:56.329Z,58.56
2019-03-23T00:13:46.948Z,58.86
2019-03-23T00:16:37.775Z,58.99
2019-03-23T00:19:28.584Z,58.87
2019-03-23T00:22:19.447Z,58.98
2019-03-23T00:25:10.602Z,59.26
2019-03-23T00:28:01.560Z,59.60
2019-03-23T00:30:52.216Z,59.56
2019-03-23T00:33:43.086Z,59.39
2019-03-23T00:36:41.306Z,59.38
2019-03-23T00:39:26.583Z,59.28
2019-03-23T00:42:17.463Z,59.28
2019-03-23T00:45:10.022Z,59.35
2019-03-23T00:48:00.525Z,59.51
2019-03-23T00:50:51.548Z,60.64
2019-03-23T00:53:42.200Z,59.89
2019-03-23T00:56:33.045Z,59.65
2019-03-23T00:59:23.205Z,59.51
2019-03-23T01:02:13.364Z,59.44
2019-03-23T01:05:04.499Z,59.64
2019-03-23T01:07:54.789Z,59.48
2019-03-23T01:10:45.446Z,59.41
2019-03-23T01:13:37.258Z,59.29
2019-03-23T01:16:28.214Z,59.18
2019-03-23T01:19:18.979Z,59.18
2019-03-23T01:22:09.388Z,59.15
2019-03-23T01:25:00.312Z,58.96
2019-03-23T01:27:50.809Z,58.79
2019-03-23T01:30:41.326Z,58.84
2019-03-23T01:33:32.331Z,58.85
2019-03-23T01:36:23.430Z,58.90
2019-03-23T01:39:14.407Z,59.05
2019-03-23T01:42:05.161Z,59.08
2019-03-23T01:44:55.969Z,58.85
2019-03-23T01:47:46.861Z,58.65
2019-03-23T01:50:37.670Z,58.64
2019-03-23T01:53:28.013Z,58.77
2019-03-23T01:56:18.604Z,58.72
2019-03-23T01:59:09.324Z,58.75
2019-03-23T02:01:59.804Z,58.93
2019-03-23T02:04:51.701Z,58.94
2019-03-23T02:07:42.713Z,58.81
2019-03-23T02:10:33.519Z,58.99
2019-03-23T02:13:24.416Z,59.09
2019-03-23T02:16:15.155Z,59.79
2019-03-23T02:19:07.129Z,59.54
2019-03-23T02:21:57.995Z,59.54
2019-03-23T02:24:48.833Z,59.54
2019-03-23T02:27:39.531Z,59.76
2019-03-23T02:30:30.121Z,59.84
2019-03-23T02:33:20.921Z,59.92
2019-03-23T02:36:11.141Z,60.59
2019-03-23T02:39:02.056Z,60.43
2019-03-23T02:41:54.078Z,60.46
2019-03-23T02:44:45.028Z,60.31
2019-03-23T02:47:35.885Z,60.26
2019-03-23T02:50:27.519Z,60.26
2019-03-23T02:53:19.445Z,60.02
2019-03-23T02:56:10.576Z,59.85
2019-03-23T02:59:01.274Z,59.80
2019-03-23T03:01:52.208Z,59.90
2019-03-23T03:04:43.157Z,59.76
2019-03-23T03:07:41.899Z,59.77
2019-03-23T03:10:41.903Z,59.84
2019-03-23T03:13:33.172Z,59.96
2019-03-23T03:16:23.915Z,60.18
2019-03-23T03:19:14.885Z,60.02
2019-03-23T03:22:05.768Z,60.00
2019-03-23T03:24:56.553Z,60.00
2019-03-23T03:27:46.768Z,60.11
2019-03-23T03:30:38.135Z,60.19
2019-03-23T03:33:28.592Z,60.09
2019-03-23T03:36:19.302Z,60.00
2019-03-23T03:39:11.208Z,60.09
2019-03-23T03:42:02.061Z,60.15
2019-03-23T03:44:52.851Z,60.12
2019-03-23T03:47:43.847Z,60.15
2019-03-23T03:50:34.778Z,60.32
2019-03-23T03:53:25.744Z,60.23
2019-03-23T03:56:16.299Z,60.13
2019-03-23T03:59:07.082Z,60.10
2019-03-23T04:01:57.573Z,60.12
2019-03-23T04:04:48.521Z,60.08
2019-03-23T04:07:39.182Z,60.04
2019-03-23T04:10:29.625Z,59.79
2019-03-23T04:13:20.055Z,59.61
2019-03-23T04:16:10.905Z,59.58
2019-03-23T04:19:02.093Z,59.41
2019-03-23T04:21:52.991Z,59.42
2019-03-23T04:24:43.633Z,59.44
2019-03-23T04:27:34.286Z,59.58
2019-03-23T04:30:25.398Z,59.64
2019-03-23T04:33:16.317Z,59.69
2019-03-23T04:36:07.250Z,59.73
2019-03-23T04:38:58.206Z,59.66
2019-03-23T04:41:50.074Z,60.12
2019-03-23T04:44:41.080Z,60.19
2019-03-23T04:47:32.259Z,60.34
2019-03-23T04:50:23.213Z,60.72
2019-03-23T04:53:13.681Z,60.77
2019-03-23T04:56:04.592Z,60.96
2019-03-23T04:58:55.298Z,60.99
2019-03-23T05:01:46.003Z,61.46
2019-03-23T05:04:36.732Z,61.58
2019-03-23T05:07:27.478Z,61.51
2019-03-23T05:10:19.101Z,61.41
2019-03-23T05:13:11.511Z,61.29
2019-03-23T05:16:02.278Z,61.60
2019-03-23T05:18:52.560Z,61.46
2019-03-23T05:21:43.517Z,61.31
2019-03-23T05:24:33.864Z,61.16
2019-03-23T05:27:24.166Z,61.19
2019-03-23T05:30:15.179Z,61.21
2019-03-23T05:33:05.859Z,61.19
2019-03-23T05:35:56.954Z,61.22
2019-03-23T05:38:47.765Z,61.36
2019-03-23T05:41:39.315Z,61.23
2019-03-23T05:44:30.095Z,61.06
2019-03-23T05:47:20.918Z,60.96
2019-03-23T05:50:12.188Z,60.94
2019-03-23T05:53:02.884Z,60.74
2019-03-23T05:55:53.348Z,60.61
2019-03-23T05:58:44.102Z,60.53
2019-03-23T06:01:34.922Z,60.39
2019-03-23T06:04:25.702Z,60.29
2019-03-23T06:07:16.689Z,60.22
2019-03-23T06:10:08.418Z,60.18
2019-03-23T06:12:59.002Z,59.97
2019-03-23T06:15:49.444Z,59.74
2019-03-23T06:18:40.069Z,59.47
2019-03-23T06:21:31.056Z,59.14
2019-03-23T06:24:21.496Z,58.81
2019-03-23T06:27:12.142Z,58.34
2019-03-23T06:30:02.892Z,57.94
2019-03-23T06:32:53.663Z,57.65
2019-03-23T06:35:44.225Z,57.01
2019-03-23T06:38:35.164Z,56.50
2019-03-23T06:41:25.886Z,56.19
2019-03-23T06:44:18.380Z,55.29
2019-03-23T06:47:10.321Z,54.33
2019-03-23T06:50:00.832Z,53.54
2019-03-23T06:52:51.762Z,52.48
2019-03-23T06:55:42.579Z,51.45
2019-03-23T06:58:33.321Z,50.71
2019-03-23T07:01:24.489Z,49.30
2019-03-23T07:04:15.418Z,48.86
2019-03-23T07:07:06.524Z,48.48
2019-03-23T07:09:57.436Z,47.41
2019-03-23T07:12:48.543Z,46.63
2019-03-23T07:15:38.740Z,45.08
2019-03-23T07:18:29.091Z,43.49
2019-03-23T07:21:19.735Z,41.33
2019-03-23T07:24:10.457Z,39.82
2019-03-23T07:27:01.487Z,38.38
2019-03-23T07:29:51.708Z,37.33
2019-03-23T07:32:42.129Z,36.30
2019-03-23T07:35:33.106Z,35.74
2019-03-23T07:38:23.605Z,35.50
2019-03-23T07:41:14.520Z,34.99
2019-03-23T07:44:04.842Z,34.18
2019-03-23T07:46:55.557Z,33.50
2019-03-23T07:49:46.009Z,33.62
2019-03-23T07:52:37.043Z,33.18
2019-03-23T07:55:27.871Z,32.93
2019-03-23T07:58:18.555Z,32.35
2019-03-23T08:01:09.930Z,31.98
2019-03-23T08:04:00.665Z,31.91
2019-03-23T08:06:51.121Z,32.97
2019-03-23T08:09:41.799Z,33.24
2019-03-23T08:12:32.502Z,34.13
2019-03-23T08:15:23.474Z,35.34
2019-03-23T08:18:14.165Z,36.02
2019-03-23T08:21:05.083Z,36.75
2019-03-23T08:23:56.208Z,37.23
2019-03-23T08:26:47.070Z,37.60
2019-03-23T08:29:37.864Z,37.30
2019-03-23T08:32:28.663Z,37.36
2019-03-23T08:35:19.487Z,37.20
2019-03-23T08:38:10.438Z,37.27
2019-03-23T08:41:00.994Z,37.02
2019-03-23T08:43:51.682Z,36.92
2019-03-23T08:46:42.395Z,36.69
2019-03-23T08:49:33.117Z,37.00
2019-03-23T08:52:24.068Z,37.56
2019-03-23T08:55:14.458Z,38.13
2019-03-23T08:58:04.995Z,38.28
2019-03-23T09:00:56.061Z,38.27
2019-03-23T09:03:52.406Z,38.41
2019-03-23T09:06:39.443Z,38.68
2019-03-23T09:09:30.442Z,38.78
2019-03-23T09:12:21.404Z,39.08
2019-03-23T09:15:13.455Z,39.04
2019-03-23T09:18:04.138Z,38.67
2019-03-23T09:20:55.126Z,38.41
2019-03-23T09:23:45.729Z,38.97
2019-03-23T09:26:36.300Z,38.47
2019-03-23T09:29:26.574Z,37.96
2019-03-23T09:32:17.494Z,37.60
2019-03-23T09:35:09.237Z,37.55
2019-03-23T09:37:59.868Z,35.77
2019-03-23T09:40:50.295Z,35.44
2019-03-23T09:43:41.110Z,34.47
2019-03-23T09:46:31.869Z,34.12
2019-03-23T09:49:22.618Z,33.56
2019-03-23T09:52:13.478Z,33.17
2019-03-23T09:55:03.892Z,32.51
2019-03-23T09:57:54.646Z,32.55
2019-03-23T10:00:45.743Z,32.57
2019-03-23T10:03:36.520Z,32.26
2019-03-23T10:06:27.374Z,32.65
2019-03-23T10:09:18.113Z,31.73
2019-03-23T10:12:09.481Z,32.16
2019-03-23T10:15:00.353Z,30.92
2019-03-23T10:17:50.485Z,31.09
2019-03-23T10:20:41.391Z,31.52
2019-03-23T10:23:32.310Z,31.09
2019-03-23T10:26:23.000Z,30.63
2019-03-23T10:29:13.944Z,29.93
2019-03-23T10:32:04.935Z,29.56
2019-03-23T10:34:55.782Z,29.35
2019-03-23T10:37:46.442Z,27.91
2019-03-23T10:40:37.501Z,27.55
2019-03-23T10:43:27.901Z,26.82
2019-03-23T10:46:18.562Z,26.51
2019-03-23T10:49:09.064Z,25.85
2019-03-23T10:51:59.955Z,24.09
2019-03-23T10:54:50.494Z,23.38
2019-03-23T10:57:41.463Z,23.12
2019-03-23T11:00:32.963Z,23.74
2019-03-23T11:03:23.684Z,23.03
2019-03-23T11:06:14.618Z,23.13
2019-03-23T11:09:07.452Z,23.33
2019-03-23T11:11:58.435Z,23.09
2019-03-23T11:14:49.096Z,23.27
2019-03-23T11:17:39.708Z,22.98
2019-03-23T11:20:31.296Z,22.67
2019-03-23T11:23:21.898Z,22.02
2019-03-23T11:26:13.008Z,22.02
2019-03-23T11:29:03.829Z,21.50
2019-03-23T11:31:54.544Z,22.20
2019-03-23T11:34:44.993Z,21.24
2019-03-23T11:37:36.725Z,20.71
2019-03-23T11:40:27.072Z,20.82
2019-03-23T11:43:17.217Z,20.31
2019-03-23T11:46:08.506Z,21.16
2019-03-23T11:49:04.554Z,20.88
2019-03-23T11:51:55.993Z,19.99
2019-03-23T11:54:46.695Z,19.37
2019-03-23T11:57:37.396Z,20.15
2019-03-23T12:00:27.971Z,20.02
2019-03-23T12:03:19.543Z,20.52
2019-03-23T12:06:10.030Z,21.09
2019-03-23T12:08:59.921Z,22.01
2019-03-23T12:11:50.867Z,22.15
2019-03-23T12:14:41.570Z,22.24
2019-03-23T12:17:32.543Z,21.77
2019-03-23T12:20:23.833Z,21.24
2019-03-23T12:23:14.774Z,21.43
2019-03-23T12:26:05.896Z,21.78
2019-03-23T12:28:56.533Z,21.65
2019-03-23T12:31:46.798Z,22.15
2019-03-23T12:34:38.479Z,21.15
2019-03-23T12:37:29.386Z,21.84
2019-03-23T12:40:20.343Z,22.13
2019-03-23T12:43:11.328Z,22.34
2019-03-23T12:46:01.633Z,22.67
2019-03-23T12:48:52.640Z,22.82
2019-03-23T12:51:42.631Z,23.17
2019-03-23T12:54:35.122Z,23.52
2019-03-23T12:57:25.746Z,24.24
2019-03-23T13:00:17.514Z,25.04
2019-03-23T13:03:09.420Z,25.20
2019-03-23T13:06:00.328Z,25.28
2019-03-23T13:08:51.188Z,25.42
2019-03-23T13:11:41.611Z,26.03
2019-03-23T13:14:32.722Z,26.07
2019-03-23T13:17:23.573Z,26.71
2019-03-23T13:20:15.294Z,27.77
2019-03-23T13:23:06.007Z,28.51
2019-03-23T13:25:56.844Z,28.67
2019-03-23T13:28:47.451Z,29.22
2019-03-23T13:31:38.324Z,29.92
2019-03-23T13:34:28.198Z,31.76
2019-03-23T13:37:18.080Z,32.11
2019-03-23T13:40:10.157Z,32.56
2019-03-23T13:43:00.954Z,33.15
2019-03-23T13:45:51.879Z,33.64
2019-03-23T13:48:43.392Z,33.36
2019-03-23T13:51:34.148Z,33.61
2019-03-23T13:54:24.799Z,34.22
2019-03-23T13:57:16.046Z,35.22
2019-03-23T14:00:08.771Z,36.01
2019-03-23T14:02:59.794Z,38.15
2019-03-23T14:05:50.684Z,38.60
2019-03-23T14:08:41.340Z,38.75
2019-03-23T14:11:32.700Z,39.13
2019-03-23T14:14:24.087Z,39.83
2019-03-23T14:17:15.098Z,40.16
2019-03-23T14:20:06.856Z,39.96
2019-03-23T14:23:02.695Z,39.91
2019-03-23T14:25:48.630Z,40.70
2019-03-23T14:28:39.190Z,40.32
2019-03-23T14:31:29.870Z,40.82
2019-03-23T14:34:20.196Z,41.61
2019-03-23T14:37:13.555Z,42.18
2019-03-23T14:40:04.283Z,42.27
2019-03-23T14:42:56.823Z,41.91
2019-03-23T14:45:47.412Z,41.41
2019-03-23T14:48:38.529Z,41.13
2019-03-23T14:51:28.019Z,40.97
2019-03-23T14:54:18.229Z,40.42
2019-03-23T14:57:08.763Z,40.20
2019-03-23T14:59:59.772Z,40.18
2019-03-23T15:02:50.722Z,40.77
2019-03-23T15:05:41.616Z,40.57
2019-03-23T15:08:33.771Z,40.72
2019-03-23T15:11:24.814Z,40.70
2019-03-23T15:14:15.781Z,41.04
2019-03-23T15:17:06.638Z,41.64
2019-03-23T15:19:57.109Z,41.74
2019-03-23T15:22:48.266Z,41.99
2019-03-23T15:25:39.572Z,42.66
2019-03-23T15:28:30.037Z,43.26
2019-03-23T15:31:21.084Z,43.09
2019-03-23T15:34:11.730Z,43.03
2019-03-23T15:37:02.111Z,43.07
2019-03-23T15:39:52.997Z,43.77
2019-03-23T15:42:45.186Z,43.38
2019-03-23T15:45:36.344Z,43.37
2019-03-23T15:48:28.697Z,42.95
2019-03-23T15:51:18.875Z,43.27
2019-03-23T15:54:09.513Z,43.67
2019-03-23T15:57:00.402Z,44.42
2019-03-23T15:59:51.249Z,44.50
2019-03-23T16:02:42.169Z,44.89
2019-03-23T16:05:33.169Z,45.22
2019-03-23T16:08:23.715Z,45.59
2019-03-23T16:11:14.353Z,45.64
2019-03-23T16:14:05.130Z,45.33
2019-03-23T16:16:56.106Z,45.14
2019-03-23T16:19:47.270Z,45.88
2019-03-23T16:22:38.094Z,46.31
2019-03-23T16:25:29.024Z,46.16
2019-03-23T16:28:19.999Z,46.86
2019-03-23T16:31:10.669Z,47.68
2019-03-23T16:34:01.669Z,47.84
2019-03-23T16:36:52.457Z,47.84
2019-03-23T16:39:42.929Z,47.92
2019-03-23T16:42:33.735Z,48.31
2019-03-23T16:45:24.185Z,48.58
2019-03-23T16:48:15.395Z,48.97
2019-03-23T16:51:06.282Z,49.21
2019-03-23T16:53:56.928Z,50.09
2019-03-23T16:56:47.967Z,49.68
2019-03-23T16:59:39.029Z,50.97
2019-03-23T17:02:29.901Z,51.04
2019-03-23T17:05:20.704Z,51.25
2019-03-23T17:08:11.404Z,51.50
2019-03-23T17:11:02.101Z,53.01
2019-03-23T17:13:53.469Z,52.05
2019-03-23T17:16:44.132Z,51.83
2019-03-23T17:19:35.369Z,52.82
2019-03-23T17:22:26.121Z,51.98
2019-03-23T17:25:16.677Z,52.46
2019-03-23T17:28:07.607Z,52.71
2019-03-23T17:30:58.093Z,52.61
2019-03-23T17:33:48.662Z,52.55
2019-03-23T17:36:40.214Z,53.20
2019-03-23T17:39:30.536Z,53.66
2019-03-23T17:42:21.470Z,53.94
2019-03-23T17:45:11.687Z,54.29
2019-03-23T17:48:02.649Z,54.88
2019-03-23T17:50:52.550Z,54.55
2019-03-23T17:53:43.615Z,54.50
2019-03-23T17:56:34.240Z,54.69
2019-03-23T17:59:24.221Z,54.66
2019-03-23T18:02:14.185Z,55.16
2019-03-23T18:05:04.997Z,54.87
2019-03-23T18:07:54.871Z,55.24
2019-03-23T18:10:44.650Z,54.72
2019-03-23T18:13:35.065Z,55.20
2019-03-23T18:16:26.088Z,55.10
2019-03-23T18:19:17.184Z,55.09
2019-03-23T18:22:07.917Z,55.01
2019-03-23T18:24:58.620Z,55.24
2019-03-23T18:27:48.587Z,55.38
2019-03-23T18:30:41.233Z,54.99
2019-03-23T18:33:31.062Z,55.24
2019-03-23T18:36:21.534Z,55.30
2019-03-23T18:39:12.135Z,55.36
2019-03-23T18:42:02.976Z,55.00
2019-03-23T18:44:53.561Z,54.89
2019-03-23T18:47:44.261Z,55.02
2019-03-23T18:50:35.086Z,54.86
2019-03-23T18:53:25.005Z,54.57
2019-03-23T18:56:15.569Z,55.42
2019-03-23T18:59:06.628Z,55.19
2019-03-23T19:01:56.833Z,55.55
2019-03-23T19:04:49.667Z,55.52
2019-03-23T19:07:40.114Z,55.70
2019-03-23T19:10:31.094Z,55.59
2019-03-23T19:13:21.466Z,54.90
2019-03-23T19:16:11.995Z,54.62
2019-03-23T19:19:01.855Z,54.34
2019-03-23T19:21:52.350Z,54.16
2019-03-23T19:24:43.097Z,54.20
2019-03-23T19:27:33.993Z,53.93
2019-03-23T19:30:26.748Z,53.90
2019-03-23T19:33:17.525Z,54.12
2019-03-23T19:36:08.528Z,54.05
2019-03-23T19:38:59.442Z,53.89
2019-03-23T19:41:50.679Z,53.90
2019-03-23T19:44:40.916Z,53.90
2019-03-23T19:47:31.639Z,54.07
2019-03-23T19:50:22.240Z,53.95
2019-03-23T19:53:13.136Z,53.89
2019-03-23T19:56:03.768Z,53.87
2019-03-23T19:58:54.087Z,53.92
2019-03-23T20:01:43.559Z,54.04
2019-03-23T20:04:34.008Z,54.06
2019-03-23T20:07:32.690Z,54.00
2019-03-23T20:10:17.015Z,54.01
2019-03-23T20:13:07.635Z,53.98
2019-03-23T20:15:58.246Z,54.06
2019-03-23T20:18:49.072Z,54.19
2019-03-23T20:21:39.753Z,54.17
2019-03-23T20:24:30.576Z,54.20
2019-03-23T20:27:21.211Z,54.31
2019-03-23T20:30:13.874Z,54.40
2019-03-23T20:33:04.849Z,54.40
2019-03-23T20:35:55.752Z,54.40
2019-03-23T20:38:47.076Z,54.58
2019-03-23T20:41:37.972Z,54.55
2019-03-23T20:44:28.391Z,54.57
2019-03-23T20:47:19.596Z,54.63
2019-03-23T20:50:11.385Z,55.24
2019-03-23T20:53:02.016Z,55.10
2019-03-23T20:55:52.582Z,55.05
2019-03-23T20:58:43.430Z,55.13
2019-03-23T21:01:34.096Z,55.18
2019-03-23T21:04:24.956Z,55.22
2019-03-23T21:07:16.517Z,55.30
2019-03-23T21:10:07.170Z,55.29
2019-03-23T21:12:57.280Z,55.43
2019-03-23T21:15:47.818Z,55.48
2019-03-23T21:18:38.756Z,55.47
2019-03-23T21:21:29.774Z,55.57
2019-03-23T21:24:21.162Z,55.64
2019-03-23T21:27:12.245Z,55.66
2019-03-23T21:30:03.264Z,55.69
2019-03-23T21:32:54.136Z,55.69
2019-03-23T21:35:44.866Z,55.66
2019-03-23T21:38:35.605Z,55.74
2019-03-23T21:41:26.141Z,55.75
2019-03-23T21:44:17.024Z,55.84
2019-03-23T21:47:07.698Z,56.00
2019-03-23T21:49:58.536Z,56.04
2019-03-23T21:52:49.803Z,56.07
2019-03-23T21:55:40.634Z,56.16
2019-03-23T21:58:31.110Z,56.16
2019-03-23T22:01:21.925Z,56.22
2019-03-23T22:04:12.084Z,56.25
2019-03-23T22:07:02.496Z,56.23
2019-03-23T22:09:53.326Z,56.34
2019-03-23T22:12:43.431Z,56.35
2019-03-23T22:15:35.038Z,56.44
2019-03-23T22:18:25.362Z,56.53
2019-03-23T22:21:16.357Z,56.62
2019-03-23T22:24:07.050Z,56.62
2019-03-23T22:26:59.304Z,56.69
2019-03-23T22:29:49.837Z,56.70
2019-03-23T22:32:40.727Z,56.76
2019-03-23T22:35:31.618Z,56.75
2019-03-23T22:38:22.341Z,56.75
2019-03-23T22:41:13.107Z,56.77
2019-03-23T22:44:03.767Z,56.77
2019-03-23T22:46:55.024Z,56.73
2019-03-23T22:49:46.489Z,56.71
2019-03-23T22:52:37.899Z,56.73
2019-03-23T22:55:28.797Z,56.77
2019-03-23T22:58:19.769Z,56.77
2019-03-23T23:01:10.806Z,56.96
2019-03-23T23:04:01.407Z,57.03
2019-03-23T23:06:52.213Z,57.23
2019-03-23T23:09:42.852Z,57.16
2019-03-23T23:12:33.137Z,57.11
2019-03-23T23:15:24.344Z,57.19
2019-03-23T23:18:15.044Z,57.20
2019-03-23T23:21:06.061Z,57.27
2019-03-23T23:23:55.655Z,57.25
2019-03-23T23:26:46.536Z,57.18
2019-03-23T23:29:36.965Z,57.15
2019-03-23T23:32:28.061Z,57.12
2019-03-23T23:35:18.795Z,57.16
2019-03-23T23:38:09.361Z,57.16
2019-03-23T23:41:00.072Z,57.14
2019-03-23T23:43:50.912Z,57.10
2019-03-23T23:46:41.626Z,57.16
2019-03-23T23:49:32.316Z,57.22
2019-03-23T23:52:23.568Z,57.27
2019-03-23T23:55:15.848Z,57.25
2019-03-23T23:58:06.493Z,57.21
